createdAt,value
2022-12-08T00:01:26.802Z,99.90
2022-12-08T00:03:54.194Z,99.90
2022-12-08T00:06:51.584Z,99.90
2022-12-08T00:09:26.171Z,99.90
2022-12-08T00:12:10.982Z,99.90
2022-12-08T00:14:40.661Z,99.90
2022-12-08T00:17:09.771Z,99.90
2022-12-08T00:19:39.104Z,99.90
2022-12-08T00:22:07.176Z,99.90
2022-12-08T00:24:39.577Z,99.90
2022-12-08T00:27:09.251Z,99.90
2022-12-08T00:32:04.287Z,99.90
2022-12-08T00:34:32.651Z,99.90
2022-12-08T00:36:59.591Z,99.90
2022-12-08T00:42:12.440Z,99.90
2022-12-08T00:44:40.668Z,99.90
2022-12-08T00:47:07.843Z,99.90
2022-12-08T00:49:34.808Z,99.90
2022-12-08T00:52:02.125Z,99.90
2022-12-08T00:56:56.237Z,99.90
2022-12-08T00:59:23.149Z,99.90
2022-12-08T01:04:19.233Z,99.90
2022-12-08T01:06:46.824Z,99.90
2022-12-08T01:09:15.504Z,99.90
2022-12-08T01:11:44.496Z,99.90
2022-12-08T01:14:12.522Z,99.90
2022-12-08T01:16:41.526Z,99.90
2022-12-08T01:19:13.972Z,99.90
2022-12-08T01:21:41.942Z,99.90
2022-12-08T01:24:15.918Z,99.90
2022-12-08T01:26:42.793Z,99.90
2022-12-08T01:29:11.049Z,99.90
2022-12-08T01:31:38.647Z,99.90
2022-12-08T01:34:06.440Z,99.90
2022-12-08T01:36:37.195Z,99.90
2022-12-08T01:39:10.523Z,99.90
2022-12-08T01:41:38.752Z,99.90
2022-12-08T01:44:11.465Z,99.90
2022-12-08T01:46:43.106Z,99.90
2022-12-08T01:49:19.038Z,99.90
2022-12-08T01:51:53.910Z,99.90
2022-12-08T01:54:23.819Z,99.90
2022-12-08T01:56:58.774Z,99.90
2022-12-08T01:59:26.998Z,99.90
2022-12-08T02:01:54.154Z,99.90
2022-12-08T02:04:21.126Z,99.90
2022-12-08T02:06:49.381Z,99.90
2022-12-08T02:09:16.605Z,99.90
2022-12-08T02:14:13.210Z,99.90
2022-12-08T02:17:20.053Z,99.90
2022-12-08T02:19:57.191Z,99.90
2022-12-08T02:22:33.519Z,99.90
2022-12-08T02:25:10.721Z,99.90
2022-12-08T02:27:44.284Z,99.90
2022-12-08T02:30:22.196Z,99.90
2022-12-08T02:33:06.749Z,99.90
2022-12-08T02:35:57.856Z,99.90
2022-12-08T02:38:27.781Z,99.90
2022-12-08T02:41:17.880Z,99.90
2022-12-08T02:43:51.108Z,99.90
2022-12-08T02:46:40.172Z,99.90
2022-12-08T02:49:07.755Z,99.90
2022-12-08T02:51:34.606Z,99.90
2022-12-08T02:54:02.804Z,99.90
2022-12-08T02:56:43.707Z,99.90
2022-12-08T02:59:15.740Z,99.90
2022-12-08T03:02:14.558Z,99.90
2022-12-08T03:05:14.030Z,99.90
2022-12-08T03:08:06.464Z,99.90
2022-12-08T03:10:47.040Z,99.90
2022-12-08T03:13:17.377Z,99.90
2022-12-08T03:15:48.773Z,99.90
2022-12-08T03:18:17.204Z,99.90
2022-12-08T03:20:46.292Z,99.90
2022-12-08T03:23:16.266Z,99.90
2022-12-08T03:25:58.217Z,99.90
2022-12-08T03:28:26.228Z,99.90
2022-12-08T03:30:57.849Z,99.90
2022-12-08T03:33:35.779Z,99.90
2022-12-08T03:36:06.163Z,99.90
2022-12-08T03:38:45.625Z,99.90
2022-12-08T03:41:19.133Z,99.90
2022-12-08T03:43:51.668Z,99.90
2022-12-08T03:48:47.206Z,99.90
2022-12-08T03:56:24.403Z,99.90
2022-12-08T03:58:52.401Z,99.90
2022-12-08T04:01:19.669Z,99.90
2022-12-08T04:03:47.074Z,99.90
2022-12-08T04:06:14.266Z,99.90
2022-12-08T04:08:41.573Z,99.90
2022-12-08T04:11:09.161Z,99.90
2022-12-08T04:13:38.037Z,99.90
2022-12-08T04:16:06.078Z,99.90
2022-12-08T04:18:33.848Z,99.90
2022-12-08T04:21:00.998Z,99.90
2022-12-08T04:23:27.859Z,99.90
2022-12-08T04:25:54.888Z,99.90
2022-12-08T04:28:21.902Z,99.90
2022-12-08T04:30:49.604Z,99.90
2022-12-08T04:33:16.987Z,99.90
2022-12-08T04:35:43.934Z,99.90
2022-12-08T04:38:10.952Z,99.90
2022-12-08T04:40:37.893Z,99.90
2022-12-08T04:43:04.960Z,99.90
2022-12-08T04:45:32.453Z,99.90
2022-12-08T04:48:00.512Z,99.90
2022-12-08T04:50:28.253Z,99.90
2022-12-08T04:52:55.184Z,99.90
2022-12-08T04:55:22.091Z,99.90
2022-12-08T04:57:49.189Z,99.90
2022-12-08T05:00:16.730Z,99.90
2022-12-08T05:02:43.748Z,99.90
2022-12-08T05:07:38.418Z,99.90
2022-12-08T05:10:06.170Z,99.90
2022-12-08T05:12:33.624Z,99.90
2022-12-08T05:15:00.546Z,99.90
2022-12-08T05:22:21.868Z,99.90
2022-12-08T05:24:48.791Z,99.90
2022-12-08T05:27:16.120Z,99.90
2022-12-08T05:29:43.007Z,99.90
2022-12-08T05:34:37.135Z,99.90
2022-12-08T05:37:04.439Z,99.90
2022-12-08T05:41:59.619Z,99.90
2022-12-08T05:44:27.001Z,99.90
2022-12-08T05:46:53.837Z,99.90
2022-12-08T05:49:20.742Z,99.90
2022-12-08T05:51:47.673Z,99.90
2022-12-08T05:59:09.386Z,99.90
2022-12-08T06:01:36.303Z,99.90
2022-12-08T06:04:04.354Z,99.90
2022-12-08T06:06:35.515Z,99.90
2022-12-08T06:09:04.402Z,99.90
2022-12-08T06:11:32.918Z,99.90
2022-12-08T06:14:00.991Z,99.90
2022-12-08T06:16:29.335Z,99.90
2022-12-08T06:18:57.318Z,99.90
2022-12-08T06:23:54.091Z,99.90
2022-12-08T06:26:25.169Z,99.90
2022-12-08T06:31:24.989Z,99.90
2022-12-08T06:33:53.156Z,99.90
2022-12-08T06:36:22.890Z,99.90
2022-12-08T06:38:50.422Z,99.90
2022-12-08T06:41:18.470Z,99.90
2022-12-08T06:43:45.987Z,99.90
2022-12-08T06:46:16.493Z,99.90
2022-12-08T06:51:23.461Z,99.90
2022-12-08T06:53:51.098Z,99.90
2022-12-08T06:56:20.159Z,99.90
2022-12-08T07:03:47.952Z,99.90
2022-12-08T07:06:18.421Z,99.90
2022-12-08T07:08:45.357Z,99.90
2022-12-08T07:11:19.664Z,99.90
2022-12-08T07:13:48.422Z,99.90
2022-12-08T07:21:13.381Z,99.90
2022-12-08T07:23:40.614Z,99.90
2022-12-08T07:26:10.132Z,99.90
2022-12-08T07:28:38.677Z,99.90
2022-12-08T07:31:06.664Z,99.90
2022-12-08T07:33:36.110Z,99.90
2022-12-08T07:36:06.748Z,99.90
2022-12-08T07:43:29.455Z,99.90
2022-12-08T07:48:23.714Z,99.90
2022-12-08T07:50:50.618Z,99.90
2022-12-08T07:53:17.698Z,99.90
2022-12-08T07:55:44.880Z,99.90
2022-12-08T07:58:12.072Z,99.90
2022-12-08T08:03:08.886Z,99.90
2022-12-08T08:05:36.041Z,99.90
2022-12-08T08:08:03.290Z,99.90
2022-12-08T08:13:01.067Z,99.90
2022-12-08T08:15:28.767Z,99.90
2022-12-08T08:22:51.202Z,99.90
2022-12-08T08:25:19.485Z,99.90
2022-12-08T08:27:47.178Z,99.90
2022-12-08T08:30:20.354Z,99.90
2022-12-08T08:35:15.914Z,99.90
2022-12-08T08:37:48.324Z,99.90
2022-12-08T08:40:15.953Z,99.90
2022-12-08T08:42:42.793Z,99.90
2022-12-08T08:47:37.124Z,99.90
2022-12-08T08:50:04.990Z,99.90
2022-12-08T08:52:32.206Z,99.90
2022-12-08T08:54:59.564Z,99.90
2022-12-08T08:57:26.457Z,99.90
2022-12-08T08:59:54.042Z,99.90
2022-12-08T09:02:21.524Z,99.90
2022-12-08T09:07:16.800Z,99.90
2022-12-08T09:09:43.921Z,99.90
2022-12-08T09:12:11.343Z,99.90
2022-12-08T09:14:38.305Z,99.90
2022-12-08T09:17:06.047Z,99.90
2022-12-08T09:19:33.049Z,99.90
2022-12-08T09:21:59.967Z,99.90
2022-12-08T09:29:21.595Z,99.90
2022-12-08T09:31:48.515Z,99.90
2022-12-08T09:36:42.845Z,99.90
2022-12-08T09:39:09.782Z,99.90
2022-12-08T09:41:48.206Z,99.90
2022-12-08T09:44:31.192Z,99.90
2022-12-08T09:46:58.966Z,99.90
2022-12-08T09:49:38.822Z,99.90
2022-12-08T09:52:12.240Z,99.90
2022-12-08T09:54:39.146Z,99.90
2022-12-08T09:57:14.186Z,99.90
2022-12-08T09:59:45.021Z,99.90
2022-12-08T10:02:24.100Z,99.90
2022-12-08T10:04:51.654Z,99.90
2022-12-08T10:07:32.614Z,99.90
2022-12-08T10:10:21.153Z,99.90
2022-12-08T10:13:19.327Z,99.90
2022-12-08T10:15:46.241Z,99.90
2022-12-08T10:18:39.355Z,99.90
2022-12-08T10:21:19.824Z,99.90
2022-12-08T10:23:51.338Z,99.90
2022-12-08T10:26:20.884Z,99.90
2022-12-08T10:28:48.209Z,99.90
2022-12-08T10:31:23.971Z,99.90
2022-12-08T10:34:10.395Z,99.70
2022-12-08T10:36:57.099Z,99.90
2022-12-08T10:39:39.056Z,99.90
2022-12-08T10:42:18.541Z,99.90
2022-12-08T10:44:57.708Z,99.90
2022-12-08T10:47:27.520Z,99.90
2022-12-08T10:50:22.524Z,99.90
2022-12-08T10:52:56.855Z,99.90
2022-12-08T10:55:23.820Z,99.70
2022-12-08T10:57:51.014Z,99.90
2022-12-08T11:00:24.572Z,99.90
2022-12-08T11:03:04.989Z,99.50
2022-12-08T11:05:36.743Z,96.90
2022-12-08T11:08:05.732Z,95.70
2022-12-08T11:10:42.830Z,95.90
2022-12-08T11:13:22.707Z,95.40
2022-12-08T11:15:50.883Z,94.80
2022-12-08T11:18:30.489Z,91.00
2022-12-08T11:21:00.953Z,90.60
2022-12-08T11:23:29.596Z,90.60
2022-12-08T11:26:01.405Z,90.10
2022-12-08T11:28:28.728Z,87.50
2022-12-08T11:31:04.506Z,87.20
2022-12-08T11:33:31.612Z,83.10
2022-12-08T11:36:07.676Z,83.70
2022-12-08T11:38:36.121Z,85.80
2022-12-08T11:41:15.769Z,83.40
2022-12-08T11:43:51.774Z,84.10
2022-12-08T11:46:50.835Z,84.10
2022-12-08T11:49:18.909Z,83.10
2022-12-08T11:51:56.100Z,83.80
2022-12-08T11:54:33.829Z,84.10
2022-12-08T11:57:08.678Z,84.50
2022-12-08T11:59:41.880Z,83.40
2022-12-08T12:02:18.679Z,82.60
2022-12-08T12:05:05.123Z,83.80
2022-12-08T12:07:58.038Z,85.10
2022-12-08T12:10:38.689Z,85.80
2022-12-08T12:13:24.833Z,85.90
2022-12-08T12:16:06.735Z,85.80
2022-12-08T12:21:36.256Z,87.00
2022-12-08T12:24:25.904Z,87.00
2022-12-08T12:27:05.081Z,89.10
2022-12-08T12:29:35.851Z,89.10
2022-12-08T12:32:08.723Z,91.10
2022-12-08T12:34:58.078Z,91.40
2022-12-08T12:37:26.569Z,93.10
2022-12-08T12:39:53.377Z,92.10
2022-12-08T12:42:39.641Z,93.10
2022-12-08T12:45:18.308Z,93.70
2022-12-08T12:48:13.498Z,94.80
2022-12-08T12:50:48.339Z,95.50
2022-12-08T12:53:18.178Z,95.80
2022-12-08T12:56:02.297Z,96.60
2022-12-08T13:01:11.809Z,98.90
2022-12-08T13:03:50.738Z,99.70
2022-12-08T13:06:32.803Z,99.90
2022-12-08T13:11:27.155Z,99.90
2022-12-08T13:14:04.985Z,99.90
2022-12-08T13:16:34.486Z,99.90
2022-12-08T13:19:05.485Z,99.90
2022-12-08T13:21:36.669Z,99.90
2022-12-08T13:24:24.883Z,99.90
2022-12-08T13:27:03.930Z,99.90
2022-12-08T13:29:35.384Z,99.90
2022-12-08T13:33:17.385Z,99.90
2022-12-08T13:35:46.700Z,99.90
2022-12-08T13:38:19.334Z,99.90
2022-12-08T13:44:31.116Z,99.90
2022-12-08T13:51:23.652Z,99.90
2022-12-08T13:58:50.853Z,99.90
2022-12-08T14:04:28.375Z,99.90
2022-12-08T14:06:42.360Z,99.90
2022-12-08T14:09:27.120Z,99.90
2022-12-08T14:12:16.802Z,99.90
2022-12-08T14:15:02.626Z,99.90
2022-12-08T14:17:30.976Z,99.90
2022-12-08T14:20:51.729Z,99.90
2022-12-08T14:28:17.152Z,99.90
2022-12-08T14:33:19.451Z,99.90
2022-12-08T14:35:52.179Z,99.90
2022-12-08T14:38:20.609Z,99.90
2022-12-08T14:40:59.389Z,99.90
2022-12-08T14:43:28.862Z,99.90
2022-12-08T14:46:06.385Z,99.90
2022-12-08T14:48:36.496Z,99.90
2022-12-08T14:51:21.393Z,99.90
2022-12-08T14:54:05.914Z,99.90
2022-12-08T14:56:51.674Z,99.90
2022-12-08T14:59:30.429Z,99.90
2022-12-08T15:02:12.188Z,99.90
2022-12-08T15:04:42.663Z,99.90
2022-12-08T15:07:19.723Z,99.90
2022-12-08T15:09:50.116Z,99.90
2022-12-08T15:12:26.728Z,99.90
2022-12-08T15:15:08.642Z,99.90
2022-12-08T15:18:12.880Z,99.90
2022-12-08T15:20:51.870Z,99.90
2022-12-08T15:23:34.141Z,99.90
2022-12-08T15:28:30.599Z,99.90
2022-12-08T15:30:58.765Z,99.90
2022-12-08T15:38:31.571Z,99.90
2022-12-08T15:40:58.860Z,99.90
2022-12-08T15:43:26.166Z,99.90
2022-12-08T15:45:59.552Z,99.90
2022-12-08T15:48:28.966Z,99.90
2022-12-08T15:50:56.646Z,99.90
2022-12-08T15:53:23.933Z,99.90
2022-12-08T15:56:26.479Z,99.90
2022-12-08T16:09:34.661Z,99.90
2022-12-08T16:12:20.348Z,99.90
2022-12-08T16:17:35.324Z,99.90
2022-12-08T16:20:04.522Z,99.90
2022-12-08T16:28:36.762Z,99.90
2022-12-08T16:30:42.145Z,99.90
2022-12-08T16:33:12.066Z,99.90
2022-12-08T16:38:06.445Z,99.90
2022-12-08T16:48:15.591Z,99.90
2022-12-08T16:50:45.369Z,99.90
2022-12-08T16:53:16.260Z,99.90
2022-12-08T16:55:47.456Z,99.90
2022-12-08T17:00:42.120Z,99.90
2022-12-08T17:03:09.202Z,99.90
2022-12-08T17:05:36.527Z,99.90
2022-12-08T17:08:03.421Z,99.90
2022-12-08T17:10:34.463Z,99.90
2022-12-08T17:15:29.330Z,99.90
2022-12-08T17:17:56.199Z,99.90
2022-12-08T17:20:25.247Z,99.90
2022-12-08T17:22:57.600Z,99.90
2022-12-08T17:25:28.010Z,99.90
2022-12-08T17:30:23.563Z,99.90
2022-12-08T17:35:22.667Z,99.90
2022-12-08T17:42:44.850Z,99.90
2022-12-08T17:45:12.086Z,99.90
2022-12-08T17:47:39.031Z,99.90
2022-12-08T17:50:07.435Z,99.90
2022-12-08T17:59:57.356Z,99.90
2022-12-08T18:09:46.213Z,99.90
2022-12-08T18:17:07.806Z,99.90
2022-12-08T18:24:29.602Z,99.90
2022-12-08T18:26:57.782Z,99.90
2022-12-08T18:31:52.629Z,99.90
2022-12-08T18:34:20.118Z,99.90
2022-12-08T18:39:29.886Z,99.90
2022-12-08T18:41:58.605Z,99.90
2022-12-08T18:44:25.686Z,99.90
2022-12-08T18:46:52.572Z,99.90
2022-12-08T18:49:20.094Z,99.90
2022-12-08T18:51:47.419Z,99.90
2022-12-08T18:56:42.135Z,99.90
2022-12-08T18:59:12.286Z,99.90
2022-12-08T19:01:40.620Z,99.90
2022-12-08T19:04:27.901Z,99.90
2022-12-08T19:09:22.943Z,99.90
2022-12-08T19:16:54.375Z,99.90
2022-12-08T19:19:24.379Z,99.90
2022-12-08T19:24:18.729Z,99.90
2022-12-08T19:26:45.951Z,99.90
2022-12-08T19:31:41.168Z,99.90
2022-12-08T19:34:09.637Z,99.90
2022-12-08T19:36:42.391Z,99.90
2022-12-08T19:39:36.791Z,99.90
2022-12-08T19:52:17.863Z,99.90
2022-12-08T19:59:40.085Z,99.90
2022-12-08T20:02:07.531Z,99.90
2022-12-08T20:07:01.900Z,99.90
2022-12-08T20:11:56.149Z,99.90
2022-12-08T20:14:23.696Z,99.90
2022-12-08T20:19:19.237Z,99.90
2022-12-08T20:29:08.153Z,99.90
2022-12-08T20:31:35.192Z,99.90
2022-12-08T20:34:02.270Z,99.90
2022-12-08T20:38:57.116Z,99.90
2022-12-08T20:41:24.991Z,99.90
2022-12-08T20:43:52.503Z,99.90
2022-12-08T20:46:21.208Z,99.90
2022-12-08T20:48:48.884Z,99.90
2022-12-08T20:51:19.971Z,99.90
2022-12-08T20:53:47.517Z,99.90
2022-12-08T20:56:19.978Z,99.90
2022-12-08T21:01:19.583Z,99.90
2022-12-08T21:03:47.625Z,99.90
2022-12-08T21:08:43.402Z,99.90
2022-12-08T21:13:39.802Z,99.90
2022-12-08T21:16:09.306Z,99.90
2022-12-08T21:18:39.602Z,99.90
2022-12-08T21:21:12.714Z,99.90
2022-12-08T21:23:40.807Z,99.90
2022-12-08T21:26:15.595Z,99.90
2022-12-08T21:31:12.075Z,99.90
2022-12-08T21:33:39.603Z,99.90
2022-12-08T21:36:15.666Z,99.90
2022-12-08T21:41:16.310Z,99.90
2022-12-08T21:43:43.391Z,99.90
2022-12-08T21:46:17.326Z,99.90
2022-12-08T21:51:11.933Z,99.90
2022-12-08T21:53:38.974Z,99.90
2022-12-08T21:56:09.901Z,99.90
2022-12-08T22:01:08.560Z,99.90
2022-12-08T22:03:36.367Z,99.90
2022-12-08T22:06:08.513Z,99.90
2022-12-08T22:08:35.900Z,99.90
2022-12-08T22:11:03.174Z,99.90
2022-12-08T22:15:58.922Z,99.90
2022-12-08T22:26:02.932Z,99.90
2022-12-08T22:28:33.131Z,99.90
2022-12-08T22:31:00.484Z,99.90
2022-12-08T22:33:30.368Z,99.90
2022-12-08T22:36:09.890Z,99.90
2022-12-08T22:41:05.910Z,99.90
2022-12-08T22:43:34.228Z,99.90
2022-12-08T22:46:01.375Z,99.90
2022-12-08T22:51:00.082Z,99.90
2022-12-08T22:53:27.446Z,99.90
2022-12-08T22:55:54.772Z,99.90
2022-12-08T23:00:49.323Z,99.90
2022-12-08T23:03:16.454Z,99.90
2022-12-08T23:08:15.995Z,99.90
2022-12-08T23:10:44.340Z,99.90
2022-12-08T23:13:12.436Z,99.90
2022-12-08T23:15:40.508Z,99.90
2022-12-08T23:18:08.696Z,99.90
2022-12-08T23:20:35.738Z,99.90
2022-12-08T23:23:02.662Z,99.90
2022-12-08T23:27:56.953Z,99.90
2022-12-08T23:30:24.972Z,99.90
2022-12-08T23:32:56.375Z,99.90
2022-12-08T23:42:45.852Z,99.90
2022-12-08T23:50:08.712Z,99.90
2022-12-08T23:52:36.161Z,99.90
2022-12-08T23:55:03.859Z,99.90
